• Join FlightAware (Why Join?)
  • Login
  • US Flag 
Gobble Gobble! 
11:03AM EST


 

Airport Tracker/Info


-or-


 

Live Flight TrackerFlight Track Log ✈ RPA3247 ✈ 07-May-2013 ✈ KDCA - KPBI

Flight Track Log - Related Links

Times and Time Zones

All times are in EDT time to prevent confusion due to time zone crossing. See the RPA3247 flight status page for this flight to view local times or setup timezone preferences in your user account.

Time Position Orientation Groundspeed Altitude Reporting Facility
EDT Latitude Longitude Course Direction KTS MPH feet Rate Location/Type
08:16PM 38.8833 -77.0500 314° West 187 215 1,300  Level Potomac TRACON
08:17PM 38.9333 -77.1167 314° West 248 285 3,700 2,280 Climbing Potomac TRACON
08:18PM 39.0000 -77.1500 339° North 291 335 6,200 2,700 Climbing Potomac TRACON
08:19PM 39.0000 -77.0833 90° East 245 282 9,100 2,520 Climbing Potomac TRACON
08:20PM 38.9500 -77.0000 128° Southeast 284 327 11,100 2,100 Climbing Potomac TRACON
08:21PM 38.8833 -76.9500 150° Southeast 337 388 13,300 2,160 Climbing Potomac TRACON
08:23PM 38.7358 -76.8558 154° Southeast 339 390 17,300 1,980 Climbing Washington Center
08:24PM 38.6550 -76.7986 151° Southeast 334 384 19,000 1,140 Climbing Washington Center
08:25PM 38.5764 -76.7417 150° Southeast 329 379 19,600 1,140 Climbing Washington Center
08:26PM 38.4850 -76.7164 168° South 324 373 21,400 1,680 Climbing Washington Center
08:27PM 38.3869 -76.7069 176° South 333 383 23,000 1,320 Climbing Washington Center
08:28PM 38.2767 -76.6867 172° South 361 415 24,000 1,380 Climbing Washington Center
08:29PM 38.1747 -76.6719 174° South 367 422 25,900 1,560 Climbing Washington Center
08:30PM 38.0703 -76.6625 176° South 367 422 27,200 1,140 Climbing Washington Center
08:31PM 37.9642 -76.6611 179° South 373 429 28,200 960 Climbing Washington Center
08:32PM 37.8556 -76.6728 185° South 386 444 29,200 1,080 Climbing Washington Center
08:33PM 37.7408 -76.6842 184° South 399 459 30,400 1,020 Climbing Washington Center
08:34PM 37.6281 -76.6931 184° South 404 465 31,300 780 Climbing Washington Center
08:35PM 37.5172 -76.7047 185° South 404 465 32,000 300 Climbing Washington Center
08:36PM 37.4086 -76.7267 189° South 404 465 32,000  Level Washington Center
08:37PM 37.2997 -76.7719 198° South 409 471 32,000  Level Washington Center
08:38PM 37.1950 -76.8172 199° South 414 476 32,000  Level Washington Center
08:39PM 37.0881 -76.8625 199° South 414 476 32,000 240 Level Washington Center
08:40PM 36.9814 -76.9050 198° South 409 471 32,600 960 Climbing Washington Center
08:41PM 36.8764 -76.9472 198° South 404 465 34,000 660 Climbing Washington Center
08:42PM 36.7781 -76.9922 200° South 398 458 34,000  Level Washington Center
08:43PM 36.6753 -77.0344 198° South 393 452 34,000  Level Washington Center
08:44PM 36.5725 -77.0739 197° South 388 447 34,000  Level Washington Center
08:45PM 36.4697 -77.1158 198° South 388 447 34,000  Level Washington Center
08:46PM 36.3692 -77.1603 200° South 388 447 34,000  Level Washington Center
08:47PM 36.2664 -77.2019 198° South 388 447 34,000  Level Washington Center
08:48PM 36.1656 -77.2411 197° South 388 447 34,000  Level Washington Center
08:49PM 36.0794 -77.2753 198° South 382 440 34,000  Level Washington Center
08:50PM 35.9767 -77.3169 198° South 382 440 34,000  Level Washington Center
08:51PM 35.8761 -77.3581 198° South 387 445 34,000  Level Washington Center
08:52PM 35.7753 -77.3994 198° South 387 445 34,000  Level Washington Center
08:53PM 35.6744 -77.4381 197° South 387 445 34,000  Level Washington Center
08:54PM 35.5736 -77.4767 197° South 387 445 34,000  Level Washington Center
08:55PM 35.4728 -77.5175 198° South 387 445 34,000  Level Washington Center
08:56PM 35.3764 -77.5586 199° South 382 440 34,000  Level Washington Center
08:57PM 35.2956 -77.6356 218° Southwest 366 421 34,000  Level Washington Center
08:58PM 35.2150 -77.7175 220° Southwest 372 428 34,000  Level Washington Center
08:59PM 35.1364 -77.7992 220° Southwest 377 434 34,000  Level Washington Center
09:00PM 35.0575 -77.8808 220° Southwest 377 434 34,000  Level Washington Center
09:01PM 34.9786 -77.9647 221° Southwest 377 434 34,000  Level Washington Center
09:02PM 34.8978 -78.0433 219° Southwest 377 434 34,000  Level Washington Center
09:03PM 34.8125 -78.1394 223° Southwest 382 440 34,000  Level Washington Center
09:04PM 34.7333 -78.2203 220° Southwest 382 440 34,000  Level Washington Center
09:05PM 34.6522 -78.3036 220° Southwest 382 440 34,000  Level Washington Center
09:06PM 34.5736 -78.3817 219° Southwest 378 435 34,000  Level Jacksonville Center
09:07PM 34.5008 -78.4486 217° Southwest 378 435 34,000  Level Jacksonville Center
09:08PM 34.4186 -78.5408 223° Southwest 373 429 34,000  Level Jacksonville Center
09:09PM 34.3400 -78.6203 220° Southwest 373 429 34,000  Level Jacksonville Center
09:10PM 34.2611 -78.6969 219° Southwest 373 429 34,000  Level Jacksonville Center
09:11PM 34.1844 -78.7733 220° Southwest 373 429 34,000  Level Jacksonville Center
09:12PM 34.1056 -78.8522 220° Southwest 373 429 34,000  Level Jacksonville Center
09:14PM 34.0057 -78.9321 214° Southwest  Level FlightAware Approximate
09:14PM 33.9497 -79.0047 214° Southwest 373 429 34,000  Level Jacksonville Center
09:15PM 33.8728 -79.0806 219° Southwest 373 429 34,000  Level Jacksonville Center
09:16PM 33.7936 -79.1592 220° Southwest 373 429 34,000  Level Jacksonville Center
09:17PM 33.7167 -79.2347 219° Southwest 373 429 34,000  Level Jacksonville Center
09:18PM 33.6375 -79.3128 219° Southwest 360 414 34,000  Level Jacksonville Center
09:19PM 33.5603 -79.3883 219° Southwest 360 414 34,000  Level Jacksonville Center
09:20PM 33.4831 -79.4636 219° Southwest 360 414 34,000  Level Jacksonville Center
09:21PM 33.4078 -79.5386 220° Southwest 360 414 34,000  Level Jacksonville Center
09:22PM 33.3325 -79.6133 220° Southwest 360 414 34,000  Level Jacksonville Center
09:23PM 33.2553 -79.6883 219° Southwest 360 414 34,000  Level Jacksonville Center
09:24PM 33.1800 -79.7631 220° Southwest 360 414 34,000  Level Jacksonville Center
09:25PM 33.1022 -79.8353 218° Southwest 360 414 34,000  Level Jacksonville Center
09:26PM 33.0250 -79.9122 220° Southwest 360 414 34,000  Level Jacksonville Center
09:27PM 32.9494 -79.9839 219° Southwest 360 414 34,000  Level Jacksonville Center
09:28PM 32.8800 -80.0506 219° Southwest 360 414 34,000  Level Jacksonville Center
09:29PM 32.7936 -80.1125 211° Southwest 365 420 34,000  Level Jacksonville Center
09:30PM 32.7114 -80.1742 212° Southwest 365 420 34,000  Level Jacksonville Center
09:31PM 32.6272 -80.2361 212° Southwest 360 414 34,000  Level Jacksonville Center
09:32PM 32.5428 -80.2975 212° Southwest 360 414 34,000  Level Jacksonville Center
09:33PM 32.4606 -80.3567 211° Southwest 355 409 34,000  Level Jacksonville Center
09:34PM 32.3653 -80.4011 202° Southwest 355 409 34,000  Level Jacksonville Center
09:35PM 32.2703 -80.4431 200° South 360 414 34,000  Level Jacksonville Center
09:36PM 32.1750 -80.4872 201° Southwest 365 420 34,000  Level Jacksonville Center
09:37PM 32.0714 -80.5342 201° Southwest 365 420 34,000  Level Jacksonville Center
09:38PM 31.9742 -80.5733 199° South 371 427 34,000  Level Jacksonville Center
09:39PM 31.8872 -80.6122 201° Southwest 371 427 34,000  Level Jacksonville Center
09:40PM 31.7836 -80.6586 201° Southwest 366 421 34,000  Level Jacksonville Center
09:41PM 31.6944 -80.6975 200° South 366 421 34,000  Level Jacksonville Center
09:42PM 31.5889 -80.7464 202° Southwest 366 421 34,000  Level Jacksonville Center
09:43PM 31.4933 -80.7850 199° South 371 427 34,000  Level Jacksonville Center
09:44PM 31.4042 -80.8211 199° South 365 420 34,000  Level Jacksonville Center
09:45PM 31.2964 -80.8722 202° Southwest 380 437 34,000  Level Jacksonville Center
09:46PM 31.2011 -80.9156 201° Southwest 380 437 34,000  Level Jacksonville Center
09:47PM 31.1017 -80.9564 199° South 380 437 34,000  Level Jacksonville Center
09:48PM 31.0042 -80.9997 201° Southwest 380 437 34,000  Level Jacksonville Center
09:49PM 30.9064 -81.0378 198° South 375 432 34,000  Level Jacksonville Center
09:50PM 30.8089 -81.0808 201° Southwest 375 432 34,000  Level Jacksonville Center
09:51PM 30.7094 -81.1214 199° South 375 432 34,000  Level Jacksonville Center
09:52PM 30.6094 -81.1450 191° South 375 432 34,000  Level Jacksonville Center
09:53PM 30.4983 -81.1181 168° South 381 438 34,000  Level Jacksonville Center
09:54PM 30.3894 -81.0914 168° South 396 456 34,000  Level Jacksonville Center
09:55PM 30.2783 -81.0622 167° South 402 463 34,000  Level Jacksonville Center
09:56PM 30.1675 -81.0353 168° South 408 470 34,000  Level Jacksonville Center
09:57PM 30.0564 -81.0086 168° South 413 475 34,000  Level Jacksonville Center
09:58PM 29.9453 -80.9822 168° South 413 475 34,000  Level Jacksonville Center
09:59PM 29.8322 -80.9556 168° South 413 475 34,000  Level Jacksonville Center
10:00PM 29.7336 -80.9336 169° South 413 475 34,000  Level Jacksonville Center
10:01PM 29.6247 -80.9025 166° South 413 475 34,000  Level Jacksonville Center
10:04PM 29.3572 -80.8417 169° South 407 468 34,000  Level Miami Center
10:05PM 29.2456 -80.8136 168° South 412 474 34,000  Level Miami Center
10:06PM 29.1378 -80.7861 167° South 412 474 34,000  Level Miami Center
10:07PM 29.0278 -80.7608 169° South 406 467 34,000  Level Miami Center
10:08PM 28.9181 -80.7308 167° South 406 467 34,000  Level Miami Center
10:09PM 28.8103 -80.7058 169° South 406 467 34,000  Level Miami Center
10:10PM 28.7006 -80.6783 168° South 411 473 34,000  Level Miami Center
10:11PM 28.6036 -80.6394 161° South 411 473 34,000 -420 Level Miami Center
10:12PM 28.4817 -80.5906 161° South 422 486 33,200 -1,500 Descending Miami Center
10:13PM 28.3703 -80.5444 160° South 422 486 31,000 -2,160 Descending Miami Center
10:14PM 28.2628 -80.5056 162° South 422 486 28,900 -2,160 Descending Miami Center
10:15PM 28.1636 -80.4647 160° South 416 479 26,700 -2,100 Descending Miami Center
10:16PM 28.0561 -80.4236 161° South 416 479 24,700 -2,220 Descending Miami Center
10:17PM 27.9422 -80.3800 161° South 405 466 22,300 -2,100 Descending Miami Center
10:18PM 27.8494 -80.3419 160° South 400 460 20,600 -1,860 Descending Miami Center
10:19PM 27.7561 -80.3061 161° South 380 437 18,600 -1,920 Descending Miami Center
10:20PM 27.6611 -80.2681 160° South 361 415 16,700 -1,920 Descending Miami Center
10:21PM 27.5681 -80.2325 161° South 361 415 14,800 -2,100 Descending Miami Center
10:22PM 27.4708 -80.1947 161° South 354 407 12,700 -1,920 Descending Miami Center
10:23PM 27.3817 -80.1617 162° South 344 396 11,000 -1,380 Descending Miami Center
10:24PM 27.3011 -80.1289 160° South 338 389 10,000 -840 Descending Miami Center
10:25PM 27.2328 -80.0992 159° South 303 349 9,400 -1,140 Descending Miami Center
10:26PM 27.1583 -80.0667 159° South 298 343 7,800 -1,860 Descending Miami Center
10:27PM 27.0753 -80.0481 169° South 279 321 5,800 -1,800 Descending Miami Center
10:28PM 27.0044 -80.0344 170° South 273 314 4,300 -1,740 Descending Miami Center
10:29PM 26.9297 -80.0231 172° South 273 314 2,400 -1,200 Descending Miami Center
10:30PM 26.8650 -80.0119 171° South 273 314 2,000 -240 Descending Miami Center
10:31PM 26.7881 -80.0006 172° South 268 308 2,000  Level Miami Center
10:33PM 26.6832 -80.0956 265° West  Level Estimated
10:40PM 26.6832 -80.0956 110° East  Level Estimated
10:41PM 26.6832 -80.0956 110° East  Level Estimated
10:42PM 26.6832 -80.0956 110° East  Level Estimated
10:43PM 26.6832 -80.0956 110° East  Level Estimated